Wind Gusting 22 knots
15
February 25, 2018 4:57 AM EST
Weather Information
Wind Direction
  270 °
Wind Speed
  15 kt (17 mph)
Wind Gust
  22 kt (25 mph)
Altimeter
29.85 in
Visibility
10 SM
Temperature
12° C
54° F
Dewpoint
08° C
46° F
Humidity
77%
Sky Condition
Overcast @ 3,700 ft
Broken @ 2,800 ft
Scattered @ 2,200 ft
MVFR

METAR KIMS 250957Z AUTO 27015G22KT 10SM SCT022 BKN028 OVC037 12/08 A2985 RMK AO1

*Background is not an actual portrayal of the airport.